• Join FlightAware (Why Join?)
  • Login
  • US Flag 
03:18PM EDT


 

Airport Tracker/Info


-or-


 

Live Flight TrackerFlight Track Log ✈ ASQ5482 ✈ 08-Sep-2013 ✈ KCRW - KATL

Flight Track Log - Related Links

Times and Time Zones

All times are in EDT time to prevent confusion due to time zone crossing. See the ASQ5482 flight status page for this flight to view local times or setup timezone preferences in your user account.

Time Position Orientation Groundspeed Altitude Reporting Facility
EDT Latitude Longitude Course Direction KTS MPH feet Rate Location/Type
05:12PM 38.2511 -81.6619 204° Southwest 236 272 5,300  Level Indianapolis Center
05:13PM 38.1789 -81.7036 204° Southwest 277 319 7,500 2,100 Climbing Indianapolis Center
05:14PM 38.1025 -81.7483 205° Southwest 299 344 9,700 1,920 Climbing Indianapolis Center
05:15PM 38.0058 -81.8047 205° Southwest 317 365 11,500 1,440 Climbing Indianapolis Center
05:16PM 37.9428 -81.8687 207° Southwest  Level Estimated
05:17PM 37.8560 -81.9234 206° Southwest  Level Estimated
05:17PM 37.9147 -81.8567 204° Southwest 356 410 12,700  Level Indianapolis Center
05:18PM 37.8281 -81.9069 205° Southwest 366 421 14,000 1,320 Climbing Indianapolis Center
05:19PM 37.7181 -81.9719 205° Southwest 372 428 15,500 1,320 Climbing Indianapolis Center
05:20PM 37.6208 -82.0269 204° Southwest 380 437 16,800 1,200 Climbing Indianapolis Center
05:21PM 37.5253 -82.0814 204° Southwest 376 433 18,000 1,080 Climbing Indianapolis Center
05:22PM 37.4300 -82.1369 205° Southwest 376 433 19,100 960 Climbing Indianapolis Center
05:23PM 37.3317 -82.1939 205° Southwest 385 443 20,100 840 Climbing Indianapolis Center
05:24PM 37.2314 -82.2500 204° Southwest 391 450 20,900 780 Climbing Indianapolis Center
05:25PM 37.1119 -82.3169 204° Southwest 399 459 21,800 780 Climbing Indianapolis Center
05:26PM 37.0089 -82.3756 204° Southwest 403 464 22,600 780 Climbing Indianapolis Center
05:27PM 36.9056 -82.4331 204° Southwest 402 463 23,400 720 Climbing Indianapolis Center
05:28PM 36.8014 -82.4914 204° Southwest 404 465 24,200 780 Climbing Indianapolis Center
05:29PM 36.6972 -82.5500 204° Southwest 406 467 25,100 780 Climbing Indianapolis Center
05:30PM 36.6086 -82.5983 204° Southwest 408 470 25,700 840 Climbing Atlanta Center
05:31PM 36.5031 -82.6569 204° Southwest 408 470 26,600 660 Climbing Atlanta Center
05:32PM 36.4014 -82.7156 205° Southwest 413 475 27,100 480 Climbing Atlanta Center
05:33PM 36.2958 -82.7714 203° Southwest 413 475 27,600 420 Climbing Atlanta Center
05:34PM 36.1922 -82.8322 205° Southwest 413 475 28,000 180 Climbing Atlanta Center
05:35PM 36.0944 -82.8850 204° Southwest 418 481 28,000  Level Atlanta Center
05:36PM 35.9844 -82.9431 203° Southwest 424 488 28,000  Level Atlanta Center
05:37PM 35.8725 -83.0086 205° Southwest 438 504 28,000  Level Atlanta Center
05:38PM 35.7561 -83.0611 200° South 448 516 28,000  Level Atlanta Center
05:39PM 35.6311 -83.0883 190° South 443 510 28,000  Level Atlanta Center
05:40PM 35.5061 -83.1178 191° South 459 528 28,000  Level Atlanta Center
05:41PM 35.3833 -83.1447 190° South 459 528 28,000  Level Atlanta Center
05:42PM 35.2603 -83.1739 191° South 459 528 28,000  Level Atlanta Center
05:43PM 35.1333 -83.2006 190° South 447 514 28,000 -120 Level Atlanta Center
05:44PM 35.0228 -83.2272 191° South 426 490 27,800 -600 Descending Atlanta Center
05:45PM 34.9103 -83.2536 191° South 414 476 26,800 -1,020 Descending Atlanta Center
05:46PM 34.8042 -83.2747 189° South 402 463 25,800 -1,020 Descending Atlanta Center
05:47PM 34.6978 -83.3036 193° South 397 457 24,800 -900 Descending Atlanta Center
05:48PM 34.6189 -83.3675 214° Southwest 369 425 24,000 -900 Descending Atlanta Center
05:49PM 34.5336 -83.4411 215° Southwest 382 440 23,100 -1,500 Descending Atlanta Center
05:50PM 34.4486 -83.5175 217° Southwest 387 445 21,000 -2,100 Descending Atlanta Center
05:51PM 34.3675 -83.5933 218° Southwest 381 438 18,900 -2,160 Descending Atlanta Center
05:52PM 34.2781 -83.6717 216° Southwest 373 429 16,700 -2,160 Descending Atlanta Center
05:53PM 34.1989 -83.7450 217° Southwest 368 423 14,600 -2,100 Descending Atlanta Center
05:54PM 34.1197 -83.8131 215° Southwest 359 413 12,600 -1,500 Descending Atlanta Center
05:55PM 34.0531 -83.8808 220° Southwest 347 399 11,600 -1,320 Descending Atlanta Center
05:56PM 33.9883 -83.9511 222° Southwest 323 372 10,000 -1,320 Descending Atlanta Center
05:57PM 33.9069 -83.9661 189° South 294 338 9,000 -540 Descending Atlanta Center
05:58PM 33.8214 -83.9639 179° South 294 338 9,000 -180 Level Atlanta Center
05:59PM 33.7483 -83.9639 180° South 294 338 8,700 -480 Descending Atlanta Center
06:00PM 33.6772 -83.9864 195° South 277 319 8,100 -960 Descending Atlanta Center
06:01PM 33.6314 -84.0364 222° Southwest 234 269 6,800 -1,140 Descending Atlanta Center
06:02PM 33.6333 -84.1333 271° West 198 228 5,500 -1,020 Descending Atlanta TRACON
06:03PM 33.6333 -84.2000 270° West 188 216 4,500 -1,020 Descending Atlanta TRACON
06:04PM 33.6333 -84.2500 270° West 192 221 3,500 -960 Descending Atlanta TRACON
06:05PM 33.6333 -84.3167 270° West 189 217 2,600 -900 Descending Atlanta TRACON
06:06PM 33.6333 -84.3667 270° West 145 167 1,800 -840 Descending Atlanta TRACON
06:08PM 33.6333 -84.4167 270° West  Level FlightAware Approximate
06:15PM 33.6367 -84.4279 270° West  Level Estimated
06:16PM 33.6367 -84.4279 270° West  Level Estimated